createdAt,value
2019-05-21T00:02:49.842Z,94000.75
2019-05-21T00:07:51.144Z,94023.16
2019-05-21T00:12:52.463Z,94021.52
2019-05-21T00:17:53.769Z,94030.92
2019-05-21T00:22:55.084Z,94017.56
2019-05-21T00:27:57.248Z,94041.41
2019-05-21T00:33:17.229Z,94036.31
2019-05-21T00:38:38.072Z,94028.23
2019-05-21T00:43:42.242Z,94038.61
2019-05-21T00:48:44.298Z,94058.77
2019-05-21T00:53:45.598Z,94052.77
2019-05-21T00:58:46.920Z,94044.64
2019-05-21T01:03:48.217Z,94057.27
2019-05-21T01:08:49.541Z,94072.07
2019-05-21T01:13:50.898Z,94048.41
2019-05-21T01:18:52.213Z,94041.61
2019-05-21T01:23:53.517Z,94057.89
2019-05-21T01:28:54.844Z,94058.38
2019-05-21T01:33:56.161Z,94105.09
2019-05-21T01:38:57.492Z,94053.00
2019-05-21T01:43:58.826Z,94067.88
2019-05-21T01:49:00.139Z,94069.63
2019-05-21T01:54:01.446Z,94077.09
2019-05-21T01:59:03.529Z,94069.45
2019-05-21T02:04:04.846Z,94049.82
2019-05-21T02:09:06.149Z,94085.18
2019-05-21T02:14:07.447Z,94077.40
2019-05-21T02:19:08.777Z,94091.33
2019-05-21T02:24:10.793Z,94106.81
2019-05-21T02:29:12.101Z,94097.45
2019-05-21T02:34:14.146Z,94108.78
2019-05-21T02:39:15.459Z,94110.81
2019-05-21T02:44:16.792Z,94126.17
2019-05-21T02:49:18.941Z,94124.67
2019-05-21T02:54:37.536Z,94130.48
2019-05-21T02:59:21.617Z,94135.75
2019-05-21T03:04:23.684Z,94144.00
2019-05-21T03:09:25.013Z,94132.95
2019-05-21T03:14:26.361Z,94139.17
2019-05-21T03:19:27.679Z,94130.59
2019-05-21T03:24:29.007Z,94157.95
2019-05-21T03:29:30.322Z,94145.49
2019-05-21T03:34:32.373Z,94163.78
2019-05-21T03:39:33.686Z,94199.16
2019-05-21T03:44:35.018Z,94163.13
2019-05-21T03:49:37.111Z,94166.48
2019-05-21T03:54:38.476Z,94217.42
2019-05-21T03:59:40.567Z,94170.54
2019-05-21T04:04:41.890Z,94204.66
2019-05-21T04:09:43.222Z,94201.99
2019-05-21T04:14:44.550Z,94196.48
2019-05-21T04:19:46.870Z,94185.77
2019-05-21T04:24:48.220Z,94188.51
2019-05-21T04:29:49.552Z,94218.17
2019-05-21T04:34:50.871Z,94218.69
2019-05-21T04:39:52.945Z,94225.27
2019-05-21T04:44:54.298Z,94226.25
2019-05-21T04:49:55.645Z,94213.67
2019-05-21T04:54:56.988Z,94233.61
2019-05-21T04:59:58.334Z,94222.76
2019-05-21T05:04:59.633Z,94253.84
2019-05-21T05:10:01.696Z,94235.02
2019-05-21T05:15:03.015Z,94238.70
2019-05-21T05:20:04.404Z,94259.47
2019-05-21T05:25:05.758Z,94260.66
2019-05-21T05:30:07.229Z,94237.95
2019-05-21T05:35:08.567Z,94254.73
2019-05-21T05:40:09.898Z,94261.42
2019-05-21T05:45:11.953Z,94267.63
2019-05-21T05:50:15.179Z,94280.66
2019-05-21T05:55:16.520Z,94276.38
2019-05-21T06:00:17.854Z,94278.08
2019-05-21T06:05:19.220Z,94296.19
2019-05-21T06:10:20.593Z,94314.77
2019-05-21T06:15:21.900Z,94290.70
2019-05-21T06:20:23.970Z,94299.25
2019-05-21T06:25:25.296Z,94310.88
2019-05-21T06:30:26.633Z,94318.39
2019-05-21T06:35:27.941Z,94351.37
2019-05-21T06:40:29.260Z,94348.92
2019-05-21T06:45:30.615Z,94339.08
2019-05-21T06:50:31.945Z,94339.14
2019-05-21T06:55:33.242Z,94341.69
2019-05-21T07:00:34.577Z,94346.27
2019-05-21T07:05:35.913Z,94367.77
2019-05-21T07:10:37.228Z,94357.52
2019-05-21T07:15:38.589Z,94368.49
2019-05-21T07:20:40.679Z,94366.17
2019-05-21T07:25:41.988Z,94381.42
2019-05-21T07:30:43.313Z,94378.30
2019-05-21T07:35:44.625Z,94380.18
2019-05-21T07:40:45.939Z,94388.86
2019-05-21T07:45:47.245Z,94386.63
2019-05-21T07:50:48.563Z,94391.87
2019-05-21T07:55:49.849Z,94400.98
2019-05-21T08:00:51.168Z,94412.83
2019-05-21T08:05:52.456Z,94407.98
2019-05-21T08:10:53.776Z,94426.23
2019-05-21T08:15:55.093Z,94416.38
2019-05-21T08:20:56.437Z,94408.59
2019-05-21T08:25:57.733Z,94429.14
2019-05-21T08:31:02.212Z,94435.80
2019-05-21T08:36:00.433Z,94429.70
2019-05-21T08:41:01.765Z,94436.95
2019-05-21T08:46:03.837Z,94440.53
2019-05-21T08:51:05.159Z,94438.27
2019-05-21T08:56:06.489Z,94441.02
2019-05-21T09:01:08.634Z,94481.28
2019-05-21T09:06:09.948Z,94474.45
2019-05-21T09:11:11.242Z,94457.50
2019-05-21T09:16:12.538Z,94449.92
2019-05-21T09:21:13.863Z,94464.72
2019-05-21T09:26:15.180Z,94447.31
2019-05-21T09:31:17.256Z,94444.42
2019-05-21T09:36:18.600Z,94452.01
2019-05-21T09:41:19.909Z,94449.45
2019-05-21T09:46:21.265Z,94457.03
2019-05-21T09:51:22.564Z,94444.92
2019-05-21T09:56:29.909Z,94457.36
2019-05-21T10:01:31.229Z,94455.25
2019-05-21T10:06:32.541Z,94464.05
2019-05-21T10:11:34.564Z,94468.70
2019-05-21T10:16:35.893Z,94483.53
2019-05-21T10:21:37.957Z,94480.56
2019-05-21T10:26:39.258Z,94505.63
2019-05-21T10:31:40.623Z,94478.19
2019-05-21T10:36:41.994Z,94490.19
2019-05-21T10:41:46.020Z,94508.91
2019-05-21T10:46:46.299Z,94506.30
2019-05-21T10:51:47.656Z,94502.87
2019-05-21T10:56:48.997Z,94537.30
2019-05-21T11:01:55.285Z,94507.02
2019-05-21T11:06:56.607Z,94501.19
2019-05-21T11:11:58.717Z,94514.92
2019-05-21T11:17:00.070Z,94514.29
2019-05-21T11:22:01.385Z,94515.08
2019-05-21T11:27:04.695Z,94526.91
2019-05-21T11:32:04.141Z,94542.83
2019-05-21T11:37:06.349Z,94544.39
2019-05-21T11:42:07.860Z,94530.23
2019-05-21T11:47:09.556Z,94546.56
2019-05-21T11:52:10.946Z,94540.41
2019-05-21T11:57:12.279Z,94528.06
2019-05-21T12:02:13.628Z,94521.06
2019-05-21T12:07:14.955Z,94554.22
2019-05-21T12:12:16.247Z,94515.51
2019-05-21T12:17:17.598Z,94561.91
2019-05-21T12:22:18.909Z,94545.20
2019-05-21T12:27:20.958Z,94534.86
2019-05-21T12:32:22.296Z,94560.83
2019-05-21T12:37:23.605Z,94565.00
2019-05-21T12:42:24.928Z,94588.19
2019-05-21T12:47:26.257Z,94597.75
2019-05-21T12:52:28.301Z,94573.07
2019-05-21T12:57:29.602Z,94582.56
2019-05-21T13:02:31.715Z,94570.70
2019-05-21T13:07:33.088Z,94579.69
2019-05-21T13:12:34.398Z,94582.78
2019-05-21T13:17:36.478Z,94587.91
2019-05-21T13:22:37.777Z,94619.25
2019-05-21T13:27:39.077Z,94594.59
2019-05-21T13:32:43.660Z,94611.28
2019-05-21T13:37:41.729Z,94616.17
2019-05-21T13:42:43.790Z,94615.67
2019-05-21T13:47:45.117Z,94622.39
2019-05-21T13:52:46.439Z,94631.74
2019-05-21T13:57:47.773Z,94649.91
2019-05-21T14:02:49.107Z,94636.94
2019-05-21T14:07:50.427Z,94641.36
2019-05-21T14:12:52.073Z,94634.27
2019-05-21T14:17:53.392Z,94644.94
2019-05-21T14:22:54.735Z,94628.25
2019-05-21T14:27:56.799Z,94646.86
2019-05-21T14:32:58.109Z,94632.52
2019-05-21T14:37:59.463Z,94642.28
2019-05-21T14:43:01.083Z,94650.91
2019-05-21T14:48:03.073Z,94672.23
2019-05-21T14:53:04.382Z,94653.67
2019-05-21T14:58:05.995Z,94679.20
2019-05-21T15:03:07.321Z,94669.68
2019-05-21T15:08:08.604Z,94669.83
2019-05-21T15:13:10.038Z,94667.73
2019-05-21T15:18:16.361Z,94685.02
2019-05-21T15:23:13.508Z,94735.70
2019-05-21T15:28:14.918Z,94688.84
2019-05-21T15:33:16.258Z,94695.47
2019-05-21T15:38:17.695Z,94697.44
2019-05-21T15:48:34.873Z,94704.88
2019-05-21T15:53:36.198Z,94731.30
2019-05-21T15:58:38.274Z,94731.38
2019-05-21T16:03:39.676Z,94735.32
2019-05-21T16:09:01.721Z,94747.53
2019-05-21T16:14:03.193Z,94738.40
2019-05-21T16:19:05.289Z,94744.75
2019-05-21T16:24:06.617Z,94757.58
2019-05-21T16:29:07.922Z,94770.83
2019-05-21T16:34:09.339Z,94767.63
2019-05-21T16:39:11.848Z,94761.52
2019-05-21T16:44:13.190Z,94767.02
2019-05-21T16:49:14.557Z,94777.34
2019-05-21T16:54:15.829Z,94783.05
2019-05-21T16:59:17.137Z,94783.28
2019-05-21T17:04:18.468Z,94797.59
2019-05-21T17:09:19.820Z,94805.67
2019-05-21T17:14:21.159Z,94807.59
2019-05-21T17:19:23.198Z,94799.03
2019-05-21T17:24:24.522Z,94803.63
2019-05-21T17:29:25.837Z,94811.02
2019-05-21T17:34:27.167Z,94821.10
2019-05-21T17:39:28.477Z,94824.50
2019-05-21T17:44:29.797Z,94815.70
2019-05-21T17:49:31.118Z,94825.08
2019-05-21T17:54:32.465Z,94820.25
2019-05-21T17:59:33.786Z,94835.20
2019-05-21T18:04:35.117Z,94845.84
2019-05-21T18:09:40.631Z,94837.77
2019-05-21T18:14:41.982Z,94833.34
2019-05-21T18:19:50.654Z,94847.01
2019-05-21T18:24:52.408Z,94848.36
2019-05-21T18:29:53.764Z,94857.58
2019-05-21T18:34:55.145Z,94859.32
2019-05-21T18:39:56.540Z,94872.23
2019-05-21T18:44:57.881Z,94875.13
2019-05-21T18:49:59.211Z,94894.75
2019-05-21T18:55:00.662Z,94894.52
2019-05-21T19:00:02.075Z,94899.88
2019-05-21T19:05:04.277Z,94919.65
2019-05-21T19:10:06.562Z,94934.31
2019-05-21T19:15:07.910Z,94918.33
2019-05-21T19:20:09.947Z,94927.09
2019-05-21T19:25:11.667Z,94958.86
2019-05-21T19:30:13.434Z,94937.38
2019-05-21T19:35:14.752Z,94938.46
2019-05-21T19:40:16.049Z,94951.78
2019-05-21T19:45:17.656Z,94960.83
2019-05-21T19:50:18.972Z,94963.56
2019-05-21T19:55:25.017Z,94966.80
2019-05-21T20:00:29.392Z,94980.47
2019-05-21T20:05:30.801Z,94978.05
2019-05-21T20:10:34.185Z,94969.70
2019-05-21T20:15:34.081Z,94983.81
2019-05-21T20:20:35.454Z,94990.86
2019-05-21T20:25:36.936Z,94989.89
2019-05-21T20:30:38.406Z,95002.72
2019-05-21T20:35:41.754Z,95000.40
2019-05-21T20:40:46.978Z,95002.10
2019-05-21T20:45:49.141Z,95010.80
2019-05-21T20:50:52.901Z,95026.27
2019-05-21T20:55:55.978Z,95018.44
2019-05-21T21:01:07.985Z,95014.95
2019-05-21T21:06:13.370Z,95011.50
2019-05-21T21:11:17.422Z,95014.17
2019-05-21T21:16:23.315Z,95023.52
2019-05-21T21:21:28.945Z,95017.55
2019-05-21T21:26:42.662Z,95025.80
2019-05-21T21:31:44.860Z,95030.84
2019-05-21T21:36:48.132Z,95023.91
2019-05-21T21:41:51.588Z,95032.30
2019-05-21T21:47:00.975Z,95039.98
2019-05-21T21:52:03.497Z,95040.31
2019-05-21T21:57:04.801Z,95048.06
2019-05-21T22:02:14.052Z,95041.83
2019-05-21T22:07:15.378Z,95039.92
2019-05-21T22:12:24.113Z,95045.28
2019-05-21T22:17:25.449Z,95040.41
2019-05-21T22:22:31.276Z,95048.00
2019-05-21T22:27:33.757Z,95044.54
2019-05-21T22:32:35.144Z,95051.11
2019-05-21T22:37:36.448Z,95053.83
2019-05-21T22:42:38.961Z,95057.20
2019-05-21T22:47:40.365Z,95052.64
2019-05-21T22:52:41.743Z,95061.44
2019-05-21T22:57:43.062Z,95071.13
2019-05-21T23:02:44.416Z,95072.58
2019-05-21T23:07:45.735Z,95059.76
2019-05-21T23:12:47.779Z,95059.92
2019-05-21T23:17:49.089Z,95057.65
2019-05-21T23:22:50.467Z,95058.84
2019-05-21T23:28:02.985Z,95059.25
2019-05-21T23:33:12.961Z,95064.48
2019-05-21T23:38:14.338Z,95065.72
2019-05-21T23:43:15.675Z,95057.17
2019-05-21T23:48:17.004Z,95063.02
2019-05-21T23:53:18.313Z,95075.58
2019-05-21T23:58:19.615Z,95075.78
